Time;durP1;ratioP1;P1;durP2;ratioP2;P2;SDS_P1;SDS_P2;PMS_P1;PMS_P2;Temp;Humidity;BMP_temperature;BMP_pressure;BME280_temperature;BME280_humidity;BME280_pressure;Samples;Min_cycle;Max_cycle;Signal;HPM_P1;HPM_P2
2021/09/02 00:01:38;;;;;;;7.17;6.47;;;;;;;12.41;99.92;99595.31;5005566;28;103312;-67
2021/09/02 00:04:06;;;;;;;10.20;7.60;;;;;;;12.16;100.00;99591.63;5006269;28;103248;-66
2021/09/02 00:06:36;;;;;;;11.13;10.03;;;;;;;11.94;100.00;99587.81;5008049;28;103996;-66
2021/09/02 00:09:04;;;;;;;8.57;7.77;;;;;;;12.17;100.00;99588.06;5011370;28;102697;-67
2021/09/02 00:11:33;;;;;;;8.60;7.43;;;;;;;12.37;100.00;99589.41;5007728;28;104134;-67
2021/09/02 00:14:01;;;;;;;6.97;6.27;;;;;;;12.44;100.00;99579.22;5011061;28;103238;-67
2021/09/02 00:16:29;;;;;;;9.77;7.90;;;;;;;12.09;98.97;99581.53;5011308;28;103270;-66
2021/09/02 00:18:57;;;;;;;7.60;6.90;;;;;;;12.07;100.00;99583.47;5004169;28;102875;-65
2021/09/02 00:21:25;;;;;;;7.10;6.40;;;;;;;12.20;100.00;99582.56;4993691;28;104027;-67
2021/09/02 00:23:55;;;;;;;7.87;5.87;;;;;;;12.36;99.79;99577.09;5010675;28;103251;-67
2021/09/02 00:26:23;;;;;;;5.80;5.20;;;;;;;12.46;98.27;99574.69;5012703;28;102628;-66
2021/09/02 00:28:51;;;;;;;8.73;6.37;;;;;;;12.41;96.46;99574.13;5007505;28;102851;-66
2021/09/02 00:31:20;;;;;;;6.30;5.70;;;;;;;12.28;97.09;99573.25;5010639;28;102697;-67
2021/09/02 00:33:49;;;;;;;6.27;5.67;;;;;;;12.26;96.76;99575.16;5008790;28;102991;-66
2021/09/02 00:36:17;;;;;;;6.40;5.53;;;;;;;12.35;96.10;99577.22;5008313;28;102922;-66
2021/09/02 00:38:45;;;;;;;4.80;4.40;;;;;;;12.18;97.86;99568.53;5012110;28;102829;-66
2021/09/02 00:41:15;;;;;;;6.47;5.87;;;;;;;12.06;98.36;99565.84;5009219;28;104187;-59
2021/09/02 00:43:44;;;;;;;7.43;6.73;;;;;;;12.21;97.80;99568.34;5009797;28;103252;-59
2021/09/02 00:46:14;;;;;;;8.43;6.63;;;;;;;12.29;96.27;99574.94;4992812;28;102684;-59
2021/09/02 00:48:43;;;;;;;6.47;5.87;;;;;;;12.30;96.38;99566.88;5012835;28;104080;-59
2021/09/02 00:51:11;;;;;;;7.33;6.63;;;;;;;12.13;96.30;99570.63;5008996;28;103989;-59
2021/09/02 00:53:40;;;;;;;7.83;7.03;;;;;;;11.79;100.00;99560.50;5011941;28;103208;-59
2021/09/02 00:56:07;;;;;;;8.13;6.10;;;;;;;11.91;100.00;99559.72;5006314;28;102944;-59
2021/09/02 00:58:37;;;;;;;6.53;5.93;;;;;;;11.89;100.00;99561.63;5008658;28;103077;-59
2021/09/02 01:01:06;;;;;;;7.63;6.83;;;;;;;11.94;99.24;99554.25;5001952;28;103322;-59
2021/09/02 01:03:35;;;;;;;6.63;6.00;;;;;;;11.98;99.58;99550.47;5011538;28;104036;-59
2021/09/02 01:06:04;;;;;;;5.53;5.03;;;;;;;12.10;98.58;99549.66;5014888;28;103567;-58
2021/09/02 01:08:32;;;;;;;5.57;5.07;;;;;;;12.21;97.64;99552.44;5012993;28;102841;-59
2021/09/02 01:11:00;;;;;;;6.17;5.57;;;;;;;12.20;96.03;99545.47;5010068;28;103296;-59
2021/09/02 01:13:29;;;;;;;8.07;7.27;;;;;;;12.00;96.05;99547.69;5012844;28;103273;-59
2021/09/02 01:15:58;;;;;;;6.93;6.33;;;;;;;11.85;97.64;99551.31;5012265;28;103066;-59
2021/09/02 01:18:26;;;;;;;5.60;5.10;;;;;;;11.93;97.97;99552.53;5005737;28;103017;-59
2021/09/02 01:20:55;;;;;;;5.90;5.30;;;;;;;12.01;97.21;99549.41;5012884;28;103334;-59
2021/09/02 01:23:24;;;;;;;6.10;4.97;;;;;;;12.05;96.31;99557.06;5012171;28;103183;-58
2021/09/02 01:25:53;;;;;;;5.10;4.60;;;;;;;12.08;96.09;99556.00;4995983;28;102685;-59
2021/09/02 01:28:21;;;;;;;7.67;6.33;;;;;;;12.01;95.59;99550.22;5010231;28;102628;-59
2021/09/02 01:30:49;;;;;;;8.33;6.97;;;;;;;11.76;98.14;99554.59;5010802;28;103687;-59
2021/09/02 01:33:17;;;;;;;5.13;4.73;;;;;;;11.85;98.88;99553.97;5009817;28;103138;-59
2021/09/02 01:35:45;;;;;;;5.53;4.83;;;;;;;11.83;98.82;99556.72;5008058;28;102797;-59
2021/09/02 01:38:13;;;;;;;7.17;6.47;;;;;;;11.67;99.75;99550.69;5010065;28;102646;-59
2021/09/02 01:40:46;;;;;;;8.93;7.53;;;;;;;11.52;100.00;99538.41;5011198;28;104622;-58
2021/09/02 01:43:17;;;;;;;6.97;6.13;;;;;;;11.54;100.00;99544.44;5012580;28;103209;-59
2021/09/02 01:45:46;;;;;;;7.10;6.40;;;;;;;11.59;100.00;99545.03;5011399;28;102758;-59
2021/09/02 01:48:14;;;;;;;6.40;5.80;;;;;;;11.52;100.00;99544.56;4994953;28;102733;-59
2021/09/02 01:50:42;;;;;;;7.70;7.00;;;;;;;11.50;100.00;99542.97;5015361;28;103350;-59
2021/09/02 01:53:13;;;;;;;6.40;5.80;;;;;;;11.59;100.00;99543.22;5009923;28;103240;-58
2021/09/02 01:55:44;;;;;;;5.80;5.17;;;;;;;11.65;100.00;99540.19;5008554;28;102715;-59
2021/09/02 01:58:12;;;;;;;5.60;5.10;;;;;;;11.74;98.79;99541.44;5014049;28;102859;-59
2021/09/02 02:00:41;;;;;;;4.67;4.27;;;;;;;11.74;97.64;99540.56;5009390;28;103720;-60
2021/09/02 02:03:10;;;;;;;10.30;6.13;;;;;;;11.67;96.53;99548.03;5001384;28;103906;-59
2021/09/02 02:05:39;;;;;;;4.90;4.50;;;;;;;11.74;97.12;99536.13;5002028;28;103847;-66
2021/09/02 02:08:07;;;;;;;7.00;6.30;;;;;;;11.65;95.74;99536.69;5000252;28;102708;-66
2021/09/02 02:10:35;;;;;;;11.43;7.67;;;;;;;11.33;97.11;99535.22;4996307;28;103299;-66
2021/09/02 02:13:04;;;;;;;7.43;6.60;;;;;;;11.04;99.86;99543.16;4998146;28;103149;-66
2021/09/02 02:15:33;;;;;;;7.37;6.63;;;;;;;11.12;100.00;99544.47;4998794;28;102703;-65
2021/09/02 02:18:01;;;;;;;7.67;6.47;;;;;;;10.93;100.00;99542.94;4998347;28;102704;-67
2021/09/02 02:20:29;;;;;;;11.10;8.27;;;;;;;10.74;100.00;99537.06;4998814;28;104060;-67
2021/09/02 02:22:57;;;;;;;8.10;7.10;;;;;;;10.75;100.00;99532.66;4998951;28;103206;-56
2021/09/02 02:25:26;;;;;;;7.63;6.90;;;;;;;10.69;100.00;99539.16;4998562;28;103009;-58
2021/09/02 02:27:54;;;;;;;7.77;7.00;;;;;;;10.83;100.00;99540.97;5000183;28;103072;-58
2021/09/02 02:30:24;;;;;;;5.37;4.87;;;;;;;11.06;100.00;99538.59;4996658;28;104062;-59
2021/09/02 02:32:53;;;;;;;5.20;4.70;;;;;;;11.18;100.00;99531.72;4998474;28;103244;-59
2021/09/02 02:35:22;;;;;;;4.40;4.00;;;;;;;11.28;100.00;99535.53;4999754;28;102810;-58
2021/09/02 02:37:50;;;;;;;5.10;4.70;;;;;;;11.34;99.27;99529.81;4999132;28;103098;-58
2021/09/02 02:40:19;;;;;;;9.60;6.63;;;;;;;11.00;98.58;99538.97;4998383;28;104012;-59
2021/09/02 02:42:48;;;;;;;7.37;6.17;;;;;;;10.77;100.00;99536.91;5000933;28;103076;-58
2021/09/02 02:45:16;;;;;;;5.70;4.73;;;;;;;10.87;100.00;99532.75;4989191;28;102817;-58
2021/09/02 02:47:46;;;;;;;5.97;5.27;;;;;;;10.99;100.00;99536.44;4999731;28;103462;-59
2021/09/02 02:50:14;;;;;;;5.03;4.63;;;;;;;11.11;99.35;99535.72;4998730;28;104019;-59
2021/09/02 02:52:42;;;;;;;7.10;5.10;;;;;;;11.20;98.07;99529.00;4998436;28;103331;-58
2021/09/02 02:55:11;;;;;;;4.60;4.20;;;;;;;11.21;97.29;99531.53;4996148;28;102734;-58
2021/09/02 02:57:39;;;;;;;5.50;4.50;;;;;;;11.25;96.60;99532.22;4997831;28;104207;-58
2021/09/02 03:00:09;;;;;;;8.37;6.83;;;;;;;10.82;97.65;99532.19;4998129;28;103832;-59
2021/09/02 03:02:37;;;;;;;6.83;6.13;;;;;;;10.60;100.00;99523.84;4995672;28;103243;-58
2021/09/02 03:05:09;;;;;;;5.43;4.90;;;;;;;10.77;100.00;99531.59;4990178;28;102942;-58
2021/09/02 03:07:37;;;;;;;6.90;4.90;;;;;;;10.84;99.25;99530.28;4998890;28;102657;-59
2021/09/02 03:10:07;;;;;;;6.00;5.40;;;;;;;10.84;99.05;99532.06;4997405;28;103806;-58
2021/09/02 03:12:36;;;;;;;6.50;5.33;;;;;;;10.93;98.11;99535.03;4986415;28;105481;-58
2021/09/02 03:15:06;;;;;;;7.50;5.33;;;;;;;10.71;97.90;99537.25;4999360;28;103786;-58
2021/09/02 03:17:34;;;;;;;5.10;4.47;;;;;;;10.80;98.95;99542.00;4997894;28;103566;-65
2021/09/02 03:20:04;;;;;;;6.47;5.67;;;;;;;10.82;98.09;99540.09;4995064;28;104660;-66
2021/09/02 03:22:34;;;;;;;6.90;6.30;;;;;;;10.66;98.20;99541.97;4997296;28;103277;-65
2021/09/02 03:25:02;;;;;;;6.97;6.27;;;;;;;10.52;99.29;99536.66;4998988;28;102670;-65
2021/09/02 03:27:31;;;;;;;6.13;5.40;;;;;;;10.53;100.00;99543.63;4998812;28;102744;-58
2021/09/02 03:29:59;;;;;;;5.70;5.10;;;;;;;10.72;99.86;99540.75;4990655;28;103296;-59
2021/09/02 03:32:27;;;;;;;5.27;4.70;;;;;;;10.82;98.76;99540.09;4996337;28;103281;-58
2021/09/02 03:34:55;;;;;;;6.67;5.93;;;;;;;10.69;97.55;99539.16;4998667;28;102754;-58
2021/09/02 03:37:23;;;;;;;11.57;4.90;;;;;;;10.76;97.76;99536.97;4999983;28;104153;-66
2021/09/02 03:39:53;;;;;;;5.63;5.13;;;;;;;10.81;96.90;99541.03;4997608;28;103275;-58
2021/09/02 03:42:21;;;;;;;8.57;5.70;;;;;;;10.73;95.95;99538.00;4997214;28;102997;-59
2021/09/02 03:44:49;;;;;;;7.70;6.33;;;;;;;10.51;96.59;99540.22;4996822;28;103703;-65
2021/09/02 03:47:17;;;;;;;6.80;6.20;;;;;;;10.24;99.93;99547.97;4998105;28;102688;-65
2021/09/02 03:49:46;;;;;;;5.13;4.60;;;;;;;10.40;99.53;99546.16;4996688;28;103335;-65
2021/09/02 03:52:14;;;;;;;6.00;5.40;;;;;;;10.50;98.05;99542.97;4997512;28;103267;-65
2021/09/02 03:54:42;;;;;;;5.63;5.07;;;;;;;10.56;97.76;99543.44;4997664;28;102698;-58
2021/09/02 03:57:12;;;;;;;5.20;4.70;;;;;;;10.62;96.91;99543.09;4996713;28;103846;-59
2021/09/02 03:59:39;;;;;;;7.40;6.60;;;;;;;10.32;97.11;99550.16;4998370;28;103828;-59
2021/09/02 04:02:08;;;;;;;6.23;5.70;;;;;;;10.27;99.16;99542.50;4996934;28;103237;-58
2021/09/02 04:04:36;;;;;;;6.10;5.50;;;;;;;10.40;98.30;99543.50;4987343;28;102783;-60
2021/09/02 04:07:05;;;;;;;6.90;5.23;;;;;;;10.43;97.73;99545.97;4998336;28;102682;-59
2021/09/02 04:09:33;;;;;;;5.63;5.07;;;;;;;10.45;97.15;99551.16;4995870;28;103418;-59
2021/09/02 04:12:01;;;;;;;5.87;4.60;;;;;;;10.50;97.52;99550.91;4997194;28;103381;-65
2021/09/02 04:14:31;;;;;;;8.07;6.13;;;;;;;10.53;96.35;99546.25;4998196;28;102570;-65
2021/09/02 04:16:59;;;;;;;6.27;5.70;;;;;;;10.51;96.68;99542.88;4997346;28;102936;-66
2021/09/02 04:19:27;;;;;;;7.20;6.47;;;;;;;10.35;96.68;99542.06;4996679;28;103315;-65
2021/09/02 04:21:55;;;;;;;6.13;5.53;;;;;;;10.42;97.75;99546.91;4998126;28;103013;-65
2021/09/02 04:24:23;;;;;;;5.07;4.67;;;;;;;10.48;96.56;99545.69;4998390;28;102710;-66
2021/09/02 04:26:51;;;;;;;4.90;4.40;;;;;;;10.57;96.03;99544.28;4998256;28;104121;-66
2021/09/02 04:29:19;;;;;;;4.80;4.30;;;;;;;10.61;95.31;99541.38;4998915;28;103258;-58
2021/09/02 04:31:49;;;;;;;8.43;6.83;;;;;;;10.22;95.48;99547.19;4998015;28;103227;-58
2021/09/02 04:34:17;;;;;;;9.40;7.20;;;;;;;9.91;98.60;99545.41;4997872;28;102750;-58
2021/09/02 04:36:46;;;;;;;7.67;6.60;;;;;;;9.77;100.00;99541.84;5000083;28;102698;-59
2021/09/02 04:39:14;;;;;;;7.07;6.13;;;;;;;10.02;99.96;99544.81;4997905;28;103244;-58
2021/09/02 04:41:42;;;;;;;5.40;4.90;;;;;;;10.05;100.00;99541.16;4999276;28;103248;-58
2021/09/02 04:44:11;;;;;;;6.83;5.93;;;;;;;10.17;99.57;99535.19;4996075;28;103112;-59
2021/09/02 04:46:39;;;;;;;6.80;5.10;;;;;;;10.28;98.72;99544.19;4997194;28;102720;-58
2021/09/02 04:49:09;;;;;;;7.33;6.63;;;;;;;10.14;98.00;99543.28;4996242;28;104317;-59
2021/09/02 04:51:37;;;;;;;5.87;5.30;;;;;;;10.27;98.73;99557.50;4998537;28;103216;-58
2021/09/02 04:54:05;;;;;;;5.13;4.63;;;;;;;10.25;98.15;99559.38;4997912;28;102604;-65
2021/09/02 04:56:34;;;;;;;5.07;4.47;;;;;;;10.27;98.61;99554.88;4995860;28;103925;-65
2021/09/02 04:59:03;;;;;;;5.67;5.10;;;;;;;10.32;97.69;99561.59;4993973;28;103249;-65
2021/09/02 05:01:31;;;;;;;5.67;5.13;;;;;;;10.22;98.67;99554.25;4995801;28;103223;-64
2021/09/02 05:04:00;;;;;;;7.03;5.20;;;;;;;10.38;98.46;99555.09;4988516;28;102717;-64
2021/09/02 05:06:29;;;;;;;6.93;5.87;;;;;;;10.47;97.48;99557.19;5009589;28;103283;-65
2021/09/02 05:08:58;;;;;;;6.17;5.60;;;;;;;10.33;97.14;99557.16;5010395;28;103801;-64
2021/09/02 05:11:26;;;;;;;4.97;4.33;;;;;;;10.48;97.21;99558.91;5006576;28;103317;-64
2021/09/02 05:13:54;;;;;;;5.13;4.67;;;;;;;10.57;96.16;99553.06;5008308;28;102610;-65
2021/09/02 05:16:22;;;;;;;7.67;5.80;;;;;;;10.57;95.79;99562.78;5010257;28;102723;-65
2021/09/02 05:18:50;;;;;;;5.13;4.47;;;;;;;10.59;95.81;99561.75;5004078;28;103341;-64
2021/09/02 05:21:19;;;;;;;7.97;5.97;;;;;;;10.45;96.71;99564.34;4977212;28;103279;-64
2021/09/02 05:23:49;;;;;;;7.07;6.33;;;;;;;10.42;96.65;99559.25;5010063;28;102675;-64
2021/09/02 05:26:17;;;;;;;5.97;5.37;;;;;;;10.48;98.07;99556.25;4993087;28;102693;-65
2021/09/02 05:28:45;;;;;;;5.10;4.60;;;;;;;10.69;97.57;99565.56;5009688;28;103007;-65
2021/09/02 05:31:13;;;;;;;8.30;6.23;;;;;;;10.59;96.91;99563.53;5006797;28;103208;-65
2021/09/02 05:33:41;;;;;;;6.00;5.23;;;;;;;10.69;99.00;99549.72;5007887;28;102684;-65
2021/09/02 05:36:09;;;;;;;6.03;4.53;;;;;;;10.73;98.76;99545.06;5008749;28;102685;-65
2021/09/02 05:38:38;;;;;;;5.43;4.57;;;;;;;10.93;98.16;99552.69;5007635;28;104040;-65
2021/09/02 05:41:08;;;;;;;4.23;3.83;;;;;;;11.10;97.68;99555.16;5005943;28;103202;-65
2021/09/02 05:43:36;;;;;;;7.80;6.67;;;;;;;10.88;98.15;99555.59;4990595;28;102707;-65
2021/09/02 05:46:05;;;;;;;6.30;5.67;;;;;;;10.97;99.81;99554.19;5011998;28;102718;-65
2021/09/02 05:48:34;;;;;;;6.77;5.57;;;;;;;11.16;99.41;99551.28;5012495;28;104124;-58
2021/09/02 05:51:05;;;;;;;7.87;7.00;;;;;;;11.09;100.00;99545.50;5009006;28;103275;-59
2021/09/02 05:53:34;;;;;;;9.33;6.20;;;;;;;11.34;99.80;99547.50;4989661;28;102818;-58
2021/09/02 05:56:03;;;;;;;6.70;5.87;;;;;;;11.50;98.95;99548.25;5007943;28;102837;-58
2021/09/02 05:58:32;;;;;;;7.03;6.20;;;;;;;11.64;98.57;99548.22;4990012;28;103329;-59
2021/09/02 06:01:01;;;;;;;5.90;5.20;;;;;;;11.78;97.58;99552.69;5004970;28;103255;-58
2021/09/02 06:03:29;;;;;;;10.10;5.67;;;;;;;11.90;96.52;99555.38;5007489;28;103100;-59
2021/09/02 06:05:58;;;;;;;7.23;6.53;;;;;;;12.00;95.60;99560.94;5007201;28;102694;-59
2021/09/02 06:08:27;;;;;;;7.40;6.70;;;;;;;11.57;98.97;99568.06;4981437;28;103399;-60
2021/09/02 06:10:55;;;;;;;9.33;7.93;;;;;;;11.51;100.00;99565.81;5006798;28;103004;-59
2021/09/02 06:13:23;;;;;;;11.77;8.53;;;;;;;11.44;100.00;99569.78;5006937;28;103014;-59
2021/09/02 06:15:53;;;;;;;8.57;7.43;;;;;;;11.39;100.00;99566.59;5008305;28;102873;-58
2021/09/02 06:18:22;;;;;;;9.00;8.10;;;;;;;11.51;100.00;99561.38;5006636;28;103974;-59
2021/09/02 06:20:51;;;;;;;6.90;6.23;;;;;;;11.84;100.00;99558.44;5006133;28;103786;-59
2021/09/02 06:23:20;;;;;;;7.13;5.70;;;;;;;12.18;100.00;99557.94;4990267;28;102961;-59
2021/09/02 06:25:48;;;;;;;6.67;6.00;;;;;;;12.46;99.07;99566.75;5009428;28;103947;-59
2021/09/02 06:28:17;;;;;;;6.90;6.20;;;;;;;12.65;97.15;99565.41;5008692;28;103251;-59
2021/09/02 06:30:46;;;;;;;6.93;6.00;;;;;;;12.81;96.17;99567.88;4993952;28;103129;-59
2021/09/02 06:33:16;;;;;;;7.30;5.73;;;;;;;13.01;94.72;99561.22;4993682;28;102817;-58
2021/09/02 06:35:44;;;;;;;6.40;5.80;;;;;;;13.15;94.12;99564.66;5009496;28;103292;-59
2021/09/02 06:38:12;;;;;;;7.83;7.13;;;;;;;13.24;93.63;99569.31;5009319;28;103426;-60
2021/09/02 06:40:41;;;;;;;9.90;8.97;;;;;;;13.02;94.21;99579.69;5013215;28;102996;-59
2021/09/02 06:43:09;;;;;;;11.23;8.73;;;;;;;12.68;96.84;99577.63;5011983;28;102604;-59
2021/09/02 06:45:37;;;;;;;7.83;7.03;;;;;;;13.01;96.52;99572.66;4987254;28;104603;-59
2021/09/02 06:48:06;;;;;;;8.10;7.30;;;;;;;13.33;94.79;99571.31;5004564;28;103862;-59
2021/09/02 06:50:35;;;;;;;11.90;8.47;;;;;;;13.32;94.53;99564.31;4990334;28;103222;-58
2021/09/02 06:53:03;;;;;;;8.90;7.97;;;;;;;13.40;95.12;99577.06;5006336;28;102663;-59
2021/09/02 06:55:31;;;;;;;7.47;6.53;;;;;;;13.63;93.51;99578.09;5006015;28;104411;-59
2021/09/02 06:57:59;;;;;;;22.30;16.30;;;;;;;13.66;93.02;99572.56;4997552;28;103255;-59
2021/09/02 07:00:28;;;;;;;27.17;19.00;;;;;;;13.89;95.11;99579.75;4986797;28;102774;-59
2021/09/02 07:02:57;;;;;;;10.73;9.63;;;;;;;13.86;91.68;99578.16;4985486;28;102834;-59
2021/09/02 07:05:26;;;;;;;10.80;9.70;;;;;;;13.26;94.27;99580.66;4995750;28;102836;-59
2021/09/02 07:07:56;;;;;;;8.67;7.87;;;;;;;13.50;95.46;99577.25;4993542;28;103492;-60
2021/09/02 07:10:36;;;;;;;8.13;7.30;;;;;;;14.12;92.83;99570.09;4991113;28;103305;-59
2021/09/02 07:13:05;;;;;;;8.33;6.40;;;;;;;14.56;90.88;99575.66;4997892;28;102934;-60
2021/09/02 07:15:36;;;;;;;12.97;9.17;;;;;;;14.27;89.32;99575.13;4992312;28;103274;-60
2021/09/02 07:18:05;;;;;;;7.00;6.30;;;;;;;14.67;89.39;99573.06;4993184;28;104169;-59
2021/09/02 07:20:34;;;;;;;7.93;7.13;;;;;;;14.79;89.38;99576.59;4993927;28;103226;-60
2021/09/02 07:23:04;;;;;;;16.33;8.30;;;;;;;15.14;88.84;99574.72;4996502;28;102728;-59
2021/09/02 07:25:32;;;;;;;9.80;8.77;;;;;;;14.92;89.08;99562.25;4980738;28;103019;-65
2021/09/02 07:28:01;;;;;;;10.03;8.87;;;;;;;14.08;90.89;99580.09;4995433;28;103242;-59
2021/09/02 07:30:29;;;;;;;9.10;8.07;;;;;;;14.44;91.32;99572.09;4997089;28;103260;-67
2021/09/02 07:32:57;;;;;;;7.83;7.03;;;;;;;15.09;88.76;99576.91;4998323;28;102719;-67
2021/09/02 07:35:26;;;;;;;7.40;6.70;;;;;;;15.78;86.81;99580.34;4998056;28;102821;-68
2021/09/02 07:37:54;;;;;;;7.43;6.70;;;;;;;16.23;84.05;99580.16;4997565;28;103252;-67
2021/09/02 07:40:23;;;;;;;14.47;9.37;;;;;;;15.47;83.59;99588.13;4997651;28;103244;-70
2021/09/02 07:42:51;;;;;;;7.33;6.53;;;;;;;16.12;85.57;99587.34;4998608;28;102703;-71
2021/09/02 07:45:20;;;;;;;10.80;8.77;;;;;;;16.23;83.16;99584.66;4997403;28;103718;-60
2021/09/02 07:47:48;;;;;;;9.17;7.93;;;;;;;16.31;82.17;99586.72;4989970;28;103897;-59
2021/09/02 07:50:17;;;;;;;8.97;8.07;;;;;;;16.25;82.35;99588.06;4998381;28;103231;-59
2021/09/02 07:52:46;;;;;;;11.93;8.10;;;;;;;16.20;81.87;99579.56;4985116;28;102748;-59
2021/09/02 07:55:15;;;;;;;10.97;8.33;;;;;;;16.66;81.07;99587.34;4989763;28;102795;-60
2021/09/02 07:57:48;;;;;;;6.97;6.37;;;;;;;17.05;81.03;99588.47;4989658;28;103278;-60
2021/09/02 08:00:17;;;;;;;7.37;6.47;;;;;;;17.92;76.26;99587.97;4997235;28;103023;-61
2021/09/02 08:02:46;;;;;;;6.37;5.77;;;;;;;18.65;74.44;99587.56;4988438;28;103204;-61
2021/09/02 08:05:15;;;;;;;10.63;6.27;;;;;;;18.62;74.89;99595.88;4999002;28;102658;-62
2021/09/02 08:07:45;;;;;;;10.63;7.65;;;;;;;17.03;76.75;99590.44;5000080;27;103320;-60
2021/09/02 08:10:14;;;;;;;8.15;7.35;;;;;;;17.65;76.78;99593.91;4984531;28;103247;-61
2021/09/02 08:12:43;;;;;;;7.15;6.45;;;;;;;19.25;71.85;99590.91;5004528;28;104538;-61
2021/09/02 08:15:13;;;;;;;6.82;6.18;;;;;;;20.29;69.54;99593.34;4990359;28;103149;-61
2021/09/02 08:17:42;;;;;;;6.93;5.80;;;;;;;20.87;65.89;99589.22;4987309;28;102996;-61
2021/09/02 08:20:11;;;;;;;7.63;6.50;;;;;;;18.90;67.37;99592.34;5002930;28;103002;-61
2021/09/02 08:22:39;;;;;;;6.03;5.43;;;;;;;20.14;69.29;99590.28;5000984;28;102702;-60
2021/09/02 08:25:10;;;;;;;6.00;5.50;;;;;;;20.99;66.49;99598.75;5003195;28;102884;-60
2021/09/02 08:27:40;;;;;;;7.45;6.75;;;;;;;20.10;63.19;99597.78;4999415;28;104040;-61
2021/09/02 08:30:34;;;;;;;6.60;5.90;;;;;;;20.62;67.72;99590.00;5002381;28;103302;-62
2021/09/02 08:33:11;;;;;;;6.60;5.78;;;;;;;21.69;62.92;99589.69;4986713;28;102766;-61
2021/09/02 08:35:40;;;;;;;6.55;5.97;;;;;;;21.86;63.26;99587.91;5001149;28;102780;-62
2021/09/02 08:38:10;;;;;;;7.20;5.40;;;;;;;22.63;61.95;99578.75;5006482;28;103314;-62
2021/09/02 08:40:40;;;;;;;5.60;5.10;;;;;;;22.92;62.21;99581.84;4983495;28;103226;-62
2021/09/02 08:43:09;;;;;;;7.18;6.47;;;;;;;21.83;62.63;99582.88;4998629;28;102945;-62
2021/09/02 08:45:51;;;;;;;6.22;5.43;;;;;;;22.36;60.01;99578.03;5007276;28;102673;-62
2021/09/02 08:48:21;;;;;;;7.22;5.45;;;;;;;23.07;60.72;99580.16;5003372;28;104014;-62
2021/09/02 08:50:50;;;;;;;7.38;6.68;;;;;;;22.13;58.54;99576.97;5008193;28;103276;-62
2021/09/02 08:53:18;;;;;;;8.00;7.05;;;;;;;22.06;60.09;99575.94;4981008;28;104056;-62
2021/09/02 08:55:46;;;;;;;5.85;5.10;;;;;;;22.60;62.05;99571.03;5006338;28;103990;-62
2021/09/02 08:58:14;;;;;;;5.78;5.28;;;;;;;22.21;62.11;99568.06;5004448;28;103274;-63
2021/09/02 09:00:42;;;;;;;7.05;6.35;;;;;;;22.46;62.42;99576.03;5007458;28;103226;-63
2021/09/02 09:03:19;;;;;;;6.07;5.47;;;;;;;23.74;57.88;99565.41;5003920;28;102685;-62
2021/09/02 09:05:54;;;;;;;6.80;6.10;;;;;;;22.20;62.02;99569.09;4978476;28;102793;-62
2021/09/02 09:08:32;;;;;;;8.02;6.03;;;;;;;22.80;61.04;99569.72;5003674;28;103254;-62
2021/09/02 09:11:20;;;;;;;9.07;6.30;;;;;;;22.83;57.49;99556.75;4996095;28;103837;-61
2021/09/02 09:14:03;;;;;;;6.95;5.93;;;;;;;22.26;59.47;99561.19;4999695;28;102873;-61
2021/09/02 09:16:43;;;;;;;7.13;5.68;;;;;;;22.69;59.92;99556.56;4997764;28;102645;-61
2021/09/02 09:19:41;;;;;;;6.65;5.95;;;;;;;23.35;56.38;99551.84;5001550;27;103326;-61
2021/09/02 09:22:11;;;;;;;6.95;5.53;;;;;;;24.49;54.21;99560.34;4988546;28;103456;-61
2021/09/02 09:24:47;;;;;;;6.47;5.53;;;;;;;24.16;53.54;99551.59;5009190;28;102714;-61
2021/09/02 09:27:31;;;;;;;6.95;6.32;;;;;;;22.63;56.00;99558.06;5006916;28;103930;-60
2021/09/02 09:30:29;;;;;;;6.30;5.70;;;;;;;23.33;57.42;99548.44;4986819;28;103131;-61
2021/09/02 09:33:18;;;;;;;8.25;6.13;;;;;;;23.02;58.13;99547.47;4981493;28;103161;-60
2021/09/02 09:35:57;;;;;;;6.40;5.78;;;;;;;21.54;60.11;99547.41;5004586;28;102764;-62
2021/09/02 09:38:25;;;;;;;6.32;5.72;;;;;;;23.40;56.63;99538.72;5008739;28;102719;-61
2021/09/02 09:40:54;;;;;;;7.28;5.68;;;;;;;23.27;58.75;99541.03;5003878;28;103331;-63
2021/09/02 09:43:24;;;;;;;7.50;5.75;;;;;;;23.53;55.07;99536.31;5002610;28;103230;-62
2021/09/02 09:45:53;;;;;;;6.07;5.57;;;;;;;22.81;59.90;99539.94;5013532;28;103206;-62
2021/09/02 09:48:34;;;;;;;6.93;6.07;;;;;;;23.90;54.87;99526.72;5006055;28;104434;-62
2021/09/02 09:51:14;;;;;;;6.03;5.43;;;;;;;24.04;54.65;99525.97;4993627;28;103367;-62
2021/09/02 09:53:45;;;;;;;6.60;5.95;;;;;;;23.85;54.67;99524.56;5007584;28;103273;-68
2021/09/02 09:56:17;;;;;;;6.38;5.75;;;;;;;23.58;53.69;99522.28;4994975;28;102781;-68
2021/09/02 09:58:46;;;;;;;6.30;5.38;;;;;;;23.16;57.19;99522.53;5007644;28;103076;-68
2021/09/02 10:01:15;;;;;;;9.57;5.55;;;;;;;23.49;56.35;99513.41;4992480;28;104555;-69
2021/09/02 10:03:45;;;;;;;6.55;5.50;;;;;;;23.24;54.97;99514.47;5011402;28;103270;-69
2021/09/02 10:06:15;;;;;;;6.45;5.75;;;;;;;24.21;54.97;99524.91;4999893;28;102791;-68
2021/09/02 10:08:45;;;;;;;6.90;5.57;;;;;;;24.75;53.69;99504.94;4990980;28;104256;-68
2021/09/02 10:11:15;;;;;;;6.57;5.93;;;;;;;23.04;55.40;99513.13;4997832;28;103070;-68
2021/09/02 10:13:45;;;;;;;7.20;5.28;;;;;;;24.08;51.29;99508.44;4998516;28;103274;-68
2021/09/02 10:16:13;;;;;;;7.32;5.80;;;;;;;24.35;49.71;99509.78;4999519;28;102648;-68
2021/09/02 10:18:45;;;;;;;6.30;5.70;;;;;;;24.51;49.53;99520.47;4997605;28;102965;-64
2021/09/02 10:21:17;;;;;;;6.18;5.68;;;;;;;25.01;48.80;99507.25;4998278;28;103547;-63
2021/09/02 10:23:45;;;;;;;6.30;5.70;;;;;;;24.94;47.95;99500.06;4991180;28;103186;-64
2021/09/02 10:26:32;;;;;;;6.80;5.63;;;;;;;25.09;47.21;99506.34;4999161;28;102671;-63
2021/09/02 10:29:01;;;;;;;6.10;5.60;;;;;;;24.72;49.19;99497.19;4997136;28;103874;-64
2021/09/02 10:31:30;;;;;;;6.00;5.50;;;;;;;25.25;49.26;99490.81;4997850;28;103310;-63
2021/09/02 10:33:59;;;;;;;6.13;5.55;;;;;;;24.77;48.58;99494.78;5001526;28;103273;-61
2021/09/02 10:36:43;;;;;;;5.88;5.38;;;;;;;24.40;48.87;99492.03;5000532;28;102620;-62
2021/09/02 10:39:12;;;;;;;6.25;5.45;;;;;;;23.87;51.46;99490.16;4998765;28;102608;-63
2021/09/02 10:41:50;;;;;;;7.72;5.55;;;;;;;23.60;50.38;99494.16;5000753;28;104101;-64
2021/09/02 10:44:21;;;;;;;5.65;5.15;;;;;;;24.74;50.83;99488.91;4999715;28;103373;-62
2021/09/02 10:46:52;;;;;;;7.57;5.65;;;;;;;24.64;50.05;99491.88;5001412;28;103340;-62
2021/09/02 10:49:26;;;;;;;6.45;5.70;;;;;;;24.65;50.17;99482.72;4999975;28;102740;-60
2021/09/02 10:52:03;;;;;;;5.25;4.75;;;;;;;25.06;49.14;99487.81;4996649;28;103214;-67
2021/09/02 10:54:35;;;;;;;6.40;5.30;;;;;;;24.61;50.19;99481.41;4998729;28;103200;-66
2021/09/02 10:57:08;;;;;;;5.90;5.40;;;;;;;24.64;49.41;99481.06;4998665;28;102692;-66
2021/09/02 10:59:45;;;;;;;6.40;5.80;;;;;;;24.96;48.62;99477.25;4997493;28;102672;-59
2021/09/02 11:02:42;;;;;;;5.40;4.90;;;;;;;25.14;48.16;99475.03;4988596;28;103312;-59
2021/09/02 11:05:15;;;;;;;6.18;5.57;;;;;;;25.12;48.09;99468.16;5006072;28;103222;-59
2021/09/02 11:07:46;;;;;;;6.15;5.55;;;;;;;24.70;49.78;99461.41;4991082;28;103189;-60
2021/09/02 11:10:20;;;;;;;5.88;5.28;;;;;;;25.32;49.28;99463.84;4994579;28;103347;-61
2021/09/02 11:12:58;;;;;;;5.78;5.18;;;;;;;25.67;48.60;99455.00;4992277;28;103497;-61
2021/09/02 11:15:27;;;;;;;6.05;5.55;;;;;;;25.72;47.65;99457.97;4994291;28;103192;-61
2021/09/02 11:17:58;;;;;;;6.07;5.45;;;;;;;25.43;49.02;99462.56;5001766;28;102635;-62
2021/09/02 11:20:44;;;;;;;6.22;5.45;;;;;;;26.04;46.88;99450.44;4993569;28;102759;-67
2021/09/02 11:23:17;;;;;;;5.95;5.18;;;;;;;25.47;48.77;99459.31;5007387;28;103279;-67
2021/09/02 11:25:48;;;;;;;5.93;5.32;;;;;;;24.20;49.33;99455.72;4995328;28;102706;-68
2021/09/02 11:28:20;;;;;;;4.95;4.55;;;;;;;25.92;48.11;99442.81;4992667;28;102787;-67
2021/09/02 11:30:49;;;;;;;6.10;5.60;;;;;;;26.21;48.36;99447.34;5009254;28;103066;-68
2021/09/02 11:33:18;;;;;;;5.82;5.35;;;;;;;25.87;47.41;99449.84;5007820;28;103120;-68
2021/09/02 11:35:56;;;;;;;6.93;5.80;;;;;;;26.31;47.46;99434.28;4992653;28;103001;-68
2021/09/02 11:38:26;;;;;;;5.50;5.10;;;;;;;25.91;47.40;99435.72;5010230;28;103619;-67